createdAt,value
2018-03-26T00:00:11.053Z,100560.88
2018-03-26T00:02:36.905Z,100555.63
2018-03-26T00:05:02.777Z,100560.84
2018-03-26T00:07:28.957Z,100560.02
2018-03-26T00:09:54.896Z,100556.11
2018-03-26T00:12:20.809Z,100560.45
2018-03-26T00:14:46.698Z,100557.45
2018-03-26T00:17:12.550Z,100561.33
2018-03-26T00:19:38.409Z,100556.10
2018-03-26T00:22:04.413Z,100556.11
2018-03-26T00:24:30.273Z,100553.06
2018-03-26T00:26:56.124Z,100557.41
2018-03-26T00:29:22.007Z,100554.80
2018-03-26T00:31:47.864Z,100546.11
2018-03-26T00:34:13.797Z,100560.93
2018-03-26T00:36:39.688Z,100552.23
2018-03-26T00:39:05.567Z,100554.84
2018-03-26T00:41:31.425Z,100546.59
2018-03-26T00:43:57.321Z,100548.33
2018-03-26T00:46:23.269Z,100547.47
2018-03-26T00:48:49.116Z,100541.84
2018-03-26T00:51:15.070Z,100543.16
2018-03-26T00:53:42.997Z,100540.55
2018-03-26T00:56:08.874Z,100544.89
2018-03-26T00:58:34.828Z,100553.55
2018-03-26T01:01:00.685Z,100550.94
2018-03-26T01:03:26.554Z,100552.25
2018-03-26T01:05:52.476Z,100547.94
2018-03-26T01:08:18.321Z,100550.55
2018-03-26T01:10:44.278Z,100552.72
2018-03-26T01:13:10.172Z,100556.63
2018-03-26T01:15:36.033Z,100554.89
2018-03-26T01:18:01.913Z,100567.50
2018-03-26T01:20:27.824Z,100554.94
2018-03-26T01:22:53.784Z,100559.72
2018-03-26T01:25:19.635Z,100564.06
2018-03-26T01:27:45.541Z,100561.02
2018-03-26T01:30:11.388Z,100564.50
2018-03-26T01:32:37.237Z,100556.63
2018-03-26T01:35:03.224Z,100560.15
2018-03-26T01:37:29.078Z,100556.67
2018-03-26T01:39:54.920Z,100563.20
2018-03-26T01:42:21.112Z,100565.84
2018-03-26T01:44:46.960Z,100569.31
2018-03-26T01:47:12.911Z,100569.75
2018-03-26T01:49:38.812Z,100580.62
2018-03-26T01:52:04.706Z,100566.71
2018-03-26T01:54:30.570Z,100579.31
2018-03-26T01:56:56.478Z,100581.05
2018-03-26T01:59:22.423Z,100578.48
2018-03-26T02:01:48.273Z,100581.52
2018-03-26T02:04:14.238Z,100577.61
2018-03-26T02:06:40.090Z,100586.73
2018-03-26T02:09:05.960Z,100581.02
2018-03-26T02:11:32.237Z,100581.48
2018-03-26T02:13:58.097Z,100588.91
2018-03-26T02:16:23.945Z,100584.12
2018-03-26T02:18:49.865Z,100584.55
2018-03-26T02:21:15.731Z,100583.25
2018-03-26T02:23:41.684Z,100591.11
2018-03-26T02:26:07.741Z,100583.25
2018-03-26T02:28:33.605Z,100585.45
2018-03-26T02:30:59.461Z,100588.50
2018-03-26T02:33:25.366Z,100583.28
2018-03-26T02:35:51.317Z,100587.50
2018-03-26T02:38:17.177Z,100592.71
2018-03-26T02:40:43.059Z,100604.05
2018-03-26T02:43:08.930Z,100594.09
2018-03-26T02:45:34.792Z,100598.87
2018-03-26T02:48:00.796Z,100603.65
2018-03-26T02:50:26.741Z,100607.05
2018-03-26T02:52:52.598Z,100603.14
2018-03-26T02:55:18.493Z,100603.62
2018-03-26T02:57:44.345Z,100614.05
2018-03-26T03:00:10.287Z,100606.26
2018-03-26T03:02:36.182Z,100610.57
2018-03-26T03:05:02.069Z,100594.48
2018-03-26T03:07:27.929Z,100604.92
2018-03-26T03:09:53.869Z,100612.70
2018-03-26T03:12:19.800Z,100603.18
2018-03-26T03:14:45.648Z,100613.11
2018-03-26T03:17:11.844Z,100611.41
2018-03-26T03:19:37.721Z,100618.80
2018-03-26T03:22:03.629Z,100620.13
2018-03-26T03:24:29.607Z,100617.45
2018-03-26T03:26:55.461Z,100608.77
2018-03-26T03:29:21.321Z,100616.19
2018-03-26T03:31:47.225Z,100618.76
2018-03-26T03:34:13.136Z,100623.98
2018-03-26T03:36:39.085Z,100619.63
2018-03-26T03:39:04.968Z,100630.97
2018-03-26T03:41:30.820Z,100619.23
2018-03-26T03:43:56.664Z,100621.00
2018-03-26T03:46:22.644Z,100628.83
2018-03-26T03:48:48.583Z,100631.41
2018-03-26T03:51:14.435Z,100629.26
2018-03-26T03:53:40.726Z,100634.07
2018-03-26T03:56:06.607Z,100636.22
2018-03-26T03:58:32.500Z,100634.47
2018-03-26T04:00:58.502Z,100631.45
2018-03-26T04:03:24.359Z,100637.11
2018-03-26T04:05:50.238Z,100634.94
2018-03-26T04:08:16.133Z,100640.59
2018-03-26T04:10:42.024Z,100632.36
2018-03-26T04:13:07.957Z,100633.63
2018-03-26T04:15:33.852Z,100641.05
2018-03-26T04:17:59.718Z,100629.31
2018-03-26T04:20:25.564Z,100637.57
2018-03-26T04:22:51.508Z,100644.09
2018-03-26T04:25:17.457Z,100642.38
2018-03-26T04:27:43.296Z,100643.23
2018-03-26T04:30:09.194Z,100634.98
2018-03-26T04:32:35.060Z,100644.98
2018-03-26T04:35:00.968Z,100644.55
2018-03-26T04:37:26.941Z,100646.27
2018-03-26T04:39:52.800Z,100650.63
2018-03-26T04:42:18.653Z,100639.75
2018-03-26T04:44:44.544Z,100642.83
2018-03-26T04:47:10.443Z,100639.78
2018-03-26T04:49:36.389Z,100650.63
2018-03-26T04:52:02.593Z,100645.85
2018-03-26T04:54:28.466Z,100650.66
2018-03-26T04:56:54.317Z,100655.00
2018-03-26T04:59:20.365Z,100653.23
2018-03-26T05:01:46.320Z,100654.13
2018-03-26T05:04:12.182Z,100659.77
2018-03-26T05:06:38.089Z,100661.06
2018-03-26T05:09:03.972Z,100667.58
2018-03-26T05:11:29.949Z,100663.27
2018-03-26T05:13:55.880Z,100663.67
2018-03-26T05:16:21.793Z,100652.39
2018-03-26T05:18:47.884Z,100665.42
2018-03-26T05:21:13.810Z,100673.63
2018-03-26T05:23:39.669Z,100658.88
2018-03-26T05:26:05.532Z,100673.64
2018-03-26T05:28:31.739Z,100671.03
2018-03-26T05:30:57.594Z,100664.55
2018-03-26T05:33:23.599Z,100661.93
2018-03-26T05:35:49.528Z,100668.88
2018-03-26T05:38:15.400Z,100672.79
2018-03-26T05:40:41.239Z,100681.84
2018-03-26T05:43:07.150Z,100678.42
2018-03-26T05:45:33.009Z,100680.16
2018-03-26T05:47:58.865Z,100685.80
2018-03-26T05:50:24.836Z,100687.11
2018-03-26T05:52:50.698Z,100682.75
2018-03-26T05:55:16.622Z,100701.41
2018-03-26T05:57:42.869Z,100700.95
2018-03-26T06:00:08.769Z,100697.02
2018-03-26T06:02:34.759Z,100703.11
2018-03-26T06:05:00.669Z,100697.45
2018-03-26T06:07:26.538Z,100713.05
2018-03-26T06:09:52.393Z,100710.03
2018-03-26T06:12:18.292Z,100702.64
2018-03-26T06:14:44.297Z,100713.48
2018-03-26T06:17:15.848Z,100707.39
2018-03-26T06:19:41.768Z,100710.44
2018-03-26T06:22:07.677Z,100716.06
2018-03-26T06:24:33.570Z,100711.27
2018-03-26T06:26:59.560Z,100712.55
2018-03-26T06:29:25.426Z,100714.23
2018-03-26T06:31:51.288Z,100715.55
2018-03-26T06:34:17.199Z,100713.84
2018-03-26T06:36:49.220Z,100716.42
2018-03-26T06:39:21.232Z,100721.16
2018-03-26T06:41:47.554Z,100722.03
2018-03-26T06:44:13.499Z,100714.57
2018-03-26T06:46:39.473Z,100727.25
2018-03-26T06:49:05.389Z,100728.03
2018-03-26T06:51:31.362Z,100732.37
2018-03-26T06:53:57.401Z,100729.76
2018-03-26T06:56:23.367Z,100731.02
2018-03-26T06:58:49.293Z,100724.05
2018-03-26T07:01:15.328Z,100734.93
2018-03-26T07:03:41.406Z,100737.38
2018-03-26T07:06:07.278Z,100740.38
2018-03-26T07:08:33.206Z,100736.94
2018-03-26T07:10:59.076Z,100735.98
2018-03-26T07:13:24.997Z,100738.09
2018-03-26T07:15:50.913Z,100743.19
2018-03-26T07:18:17.036Z,100744.00
2018-03-26T07:20:42.956Z,100747.38
2018-03-26T07:23:09.386Z,100743.39
2018-03-26T07:25:35.288Z,100747.31
2018-03-26T07:28:01.666Z,100749.78
2018-03-26T07:30:27.602Z,100753.77
2018-03-26T07:32:53.468Z,100754.53
2018-03-26T07:35:19.440Z,100762.39
2018-03-26T07:37:45.373Z,100767.21
2018-03-26T07:40:11.266Z,100764.94
2018-03-26T07:42:37.157Z,100761.41
2018-03-26T07:45:03.089Z,100756.52
2018-03-26T07:47:28.937Z,100761.70
2018-03-26T07:49:54.776Z,100761.59
2018-03-26T07:52:20.673Z,100769.14
2018-03-26T07:54:46.540Z,100767.95
2018-03-26T07:57:12.388Z,100770.97
2018-03-26T07:59:38.305Z,100778.50
2018-03-26T08:02:04.164Z,100776.00
2018-03-26T08:04:30.223Z,100782.86
2018-03-26T08:06:56.153Z,100780.70
2018-03-26T08:09:22.025Z,100779.02
2018-03-26T08:11:47.918Z,100780.06
2018-03-26T08:14:13.840Z,100784.61
2018-03-26T08:16:39.833Z,100783.29
2018-03-26T08:19:05.692Z,100783.20
2018-03-26T08:21:31.597Z,100792.71
2018-03-26T08:23:57.465Z,100803.92
2018-03-26T08:26:23.316Z,100802.38
2018-03-26T08:28:49.303Z,100809.22
2018-03-26T08:31:15.253Z,100804.27
2018-03-26T08:33:41.224Z,100804.41
2018-03-26T08:36:07.498Z,100802.95
2018-03-26T08:38:33.348Z,100806.97
2018-03-26T08:40:59.342Z,100803.92
2018-03-26T08:43:25.346Z,100801.34
2018-03-26T08:45:51.214Z,100803.39
2018-03-26T08:48:17.121Z,100803.30
2018-03-26T08:50:43.046Z,100805.80
2018-03-26T08:53:09.092Z,100805.93
2018-03-26T08:55:34.937Z,100809.17
2018-03-26T08:58:00.890Z,100803.98
2018-03-26T09:00:26.764Z,100812.12
2018-03-26T09:02:52.646Z,100801.92
2018-03-26T09:05:18.949Z,100808.61
2018-03-26T09:07:44.915Z,100812.17
2018-03-26T09:10:10.842Z,100813.39
2018-03-26T09:12:36.948Z,100819.27
2018-03-26T09:15:02.826Z,100820.47
2018-03-26T09:17:28.756Z,100825.02
2018-03-26T09:19:55.834Z,100829.02
2018-03-26T09:22:21.733Z,100831.99
2018-03-26T09:24:47.581Z,100830.77
2018-03-26T09:27:13.510Z,100835.81
2018-03-26T09:29:39.385Z,100839.84
2018-03-26T09:32:16.618Z,100837.46
2018-03-26T09:34:43.277Z,100840.98
2018-03-26T09:37:09.145Z,100841.41
2018-03-26T09:39:35.002Z,100841.59
2018-03-26T09:42:00.914Z,100850.45
2018-03-26T09:44:26.811Z,100848.95
2018-03-26T09:46:52.664Z,100853.27
2018-03-26T09:49:18.617Z,100848.38
2018-03-26T09:51:44.618Z,100840.73
2018-03-26T09:54:10.522Z,100845.90
2018-03-26T09:56:36.498Z,100840.47
2018-03-26T09:59:02.370Z,100836.84
2018-03-26T10:01:31.125Z,100850.29
2018-03-26T10:03:57.033Z,100843.66
2018-03-26T10:06:22.916Z,100848.55
2018-03-26T10:08:48.776Z,100846.59
2018-03-26T10:11:14.683Z,100853.42
2018-03-26T10:13:40.555Z,100854.74
2018-03-26T10:16:06.463Z,100856.28
2018-03-26T10:18:32.442Z,100860.31
2018-03-26T10:20:58.332Z,100861.83
2018-03-26T10:23:24.210Z,100862.20
2018-03-26T10:25:50.974Z,100866.05
2018-03-26T10:28:16.853Z,100869.75
2018-03-26T10:30:42.710Z,100867.45
2018-03-26T10:33:08.622Z,100873.28
2018-03-26T10:35:34.497Z,100874.06
2018-03-26T10:38:00.367Z,100876.53
2018-03-26T10:40:26.278Z,100877.80
2018-03-26T10:42:52.161Z,100873.16
2018-03-26T10:45:18.036Z,100878.70
2018-03-26T10:47:43.941Z,100882.02
2018-03-26T10:50:09.824Z,100876.96
2018-03-26T10:52:35.702Z,100874.63
2018-03-26T10:55:01.607Z,100882.38
2018-03-26T10:57:27.479Z,100878.16
2018-03-26T10:59:53.361Z,100886.36
2018-03-26T11:02:19.286Z,100883.80
2018-03-26T11:04:45.169Z,100885.20
2018-03-26T11:07:11.073Z,100884.65
2018-03-26T11:09:37.039Z,100879.39
2018-03-26T11:12:02.926Z,100887.87
2018-03-26T11:14:28.796Z,100892.50
2018-03-26T11:16:54.698Z,100890.83
2018-03-26T11:19:20.630Z,100888.64
2018-03-26T11:21:46.508Z,100888.84
2018-03-26T11:24:12.439Z,100887.84
2018-03-26T11:26:38.313Z,100893.28
2018-03-26T11:29:04.181Z,100891.33
2018-03-26T11:31:30.098Z,100889.34
2018-03-26T11:33:55.964Z,100897.70
2018-03-26T11:36:21.902Z,100896.05
2018-03-26T11:38:47.759Z,100906.91
2018-03-26T11:41:13.630Z,100901.86
2018-03-26T11:43:39.498Z,100904.17
2018-03-26T11:46:05.426Z,100904.73
2018-03-26T11:48:31.285Z,100899.64
2018-03-26T11:50:57.143Z,100909.56
2018-03-26T11:53:23.065Z,100912.12
2018-03-26T11:55:48.922Z,100921.67
2018-03-26T11:58:14.765Z,100916.55
2018-03-26T12:00:40.669Z,100922.05
2018-03-26T12:03:06.551Z,100920.08
2018-03-26T12:05:32.425Z,100920.16
2018-03-26T12:07:58.334Z,100923.22
2018-03-26T12:10:24.210Z,100925.44
2018-03-26T12:12:50.057Z,100929.05
2018-03-26T12:15:15.965Z,100927.41
2018-03-26T12:17:41.866Z,100933.83
2018-03-26T12:20:20.364Z,100929.92
2018-03-26T12:22:46.214Z,100920.20
2018-03-26T12:25:12.088Z,100924.80
2018-03-26T12:27:50.459Z,100928.89
2018-03-26T12:30:20.234Z,100933.39
2018-03-26T12:32:46.093Z,100932.67
2018-03-26T12:35:24.349Z,100930.56
2018-03-26T12:37:50.215Z,100938.97
2018-03-26T12:40:28.376Z,100936.86
2018-03-26T12:42:54.222Z,100939.99
2018-03-26T12:45:32.353Z,100936.08
2018-03-26T12:47:58.230Z,100934.42
2018-03-26T12:50:37.071Z,100940.17
2018-03-26T12:53:02.950Z,100941.09
2018-03-26T12:55:28.832Z,100945.84
2018-03-26T12:58:07.102Z,100944.17
2018-03-26T13:00:32.972Z,100939.38
2018-03-26T13:02:58.820Z,100937.18
2018-03-26T13:05:24.716Z,100936.38
2018-03-26T13:07:50.575Z,100932.36
2018-03-26T13:10:16.432Z,100939.72
2018-03-26T13:12:42.345Z,100947.49
2018-03-26T13:15:08.211Z,100950.84
2018-03-26T13:17:34.065Z,100935.45
2018-03-26T13:19:59.966Z,100943.25
2018-03-26T13:22:25.908Z,100947.08
2018-03-26T13:24:51.779Z,100944.15
2018-03-26T13:27:17.674Z,100942.52
2018-03-26T13:29:43.521Z,100939.39
2018-03-26T13:32:09.373Z,100950.23
2018-03-26T13:34:35.281Z,100948.30
2018-03-26T13:37:01.140Z,100947.73
2018-03-26T13:39:26.989Z,100947.19
2018-03-26T13:41:52.898Z,100946.92
2018-03-26T13:44:18.752Z,100947.57
2018-03-26T13:46:44.625Z,100944.63
2018-03-26T13:49:10.525Z,100947.02
2018-03-26T13:51:36.404Z,100952.94
2018-03-26T13:54:02.285Z,100953.95
2018-03-26T13:56:28.196Z,100956.55
2018-03-26T13:58:54.055Z,100961.34
2018-03-26T14:01:19.912Z,100961.25
2018-03-26T14:03:45.828Z,100961.19
2018-03-26T14:06:11.718Z,100962.47
2018-03-26T14:08:49.997Z,100957.41
2018-03-26T14:11:28.173Z,100969.99
2018-03-26T14:14:06.349Z,100976.98
2018-03-26T14:16:44.483Z,100974.05
2018-03-26T14:19:10.372Z,100966.61
2018-03-26T14:21:36.225Z,100973.80
2018-03-26T14:24:02.158Z,100980.05
2018-03-26T14:26:28.052Z,100977.50
2018-03-26T14:28:53.913Z,100975.02
2018-03-26T14:31:19.808Z,100970.64
2018-03-26T14:33:45.702Z,100973.97
2018-03-26T14:36:11.562Z,100970.62
2018-03-26T14:38:37.513Z,100972.56
2018-03-26T14:41:03.430Z,100974.12
2018-03-26T14:43:29.383Z,100970.93
2018-03-26T14:45:55.260Z,100979.98
2018-03-26T14:48:21.269Z,100973.64
2018-03-26T14:50:47.176Z,100965.63
2018-03-26T14:53:13.030Z,100971.64
2018-03-26T14:55:38.949Z,100970.81
2018-03-26T14:58:04.812Z,100965.58
2018-03-26T15:00:30.792Z,100964.66
2018-03-26T15:02:56.702Z,100967.43
2018-03-26T15:05:22.557Z,100964.33
2018-03-26T15:07:48.437Z,100970.92
2018-03-26T15:10:14.413Z,100971.23
2018-03-26T15:12:40.365Z,100964.20
2018-03-26T15:15:06.266Z,100961.37
2018-03-26T15:17:32.197Z,100966.63
2018-03-26T15:19:58.052Z,100967.70
2018-03-26T15:22:23.926Z,100962.06
2018-03-26T15:24:49.837Z,100962.58
2018-03-26T15:27:15.758Z,100963.98
2018-03-26T15:29:41.609Z,100968.37
2018-03-26T15:32:07.551Z,100965.41
2018-03-26T15:34:33.418Z,100971.63
2018-03-26T15:36:59.302Z,100961.70
2018-03-26T15:39:25.198Z,100963.82
2018-03-26T15:41:51.080Z,100968.66
2018-03-26T15:44:16.953Z,100967.98
2018-03-26T15:46:42.869Z,100971.45
2018-03-26T15:49:08.733Z,100974.25
2018-03-26T15:51:34.720Z,100975.47
2018-03-26T15:54:00.607Z,100976.33
2018-03-26T15:56:26.502Z,100975.94
2018-03-26T15:58:52.364Z,100966.37
2018-03-26T16:01:18.514Z,100973.80
2018-03-26T16:03:44.405Z,100976.53
2018-03-26T16:06:10.275Z,100971.95
2018-03-26T16:08:36.180Z,100966.54
2018-03-26T16:11:02.066Z,100971.97
2018-03-26T16:13:28.022Z,100968.02
2018-03-26T16:15:53.920Z,100960.85
2018-03-26T16:18:19.797Z,100959.98
2018-03-26T16:20:45.644Z,100959.16
2018-03-26T16:23:11.553Z,100963.01
2018-03-26T16:25:37.514Z,100963.59
2018-03-26T16:28:03.372Z,100966.59
2018-03-26T16:30:29.264Z,100964.91
2018-03-26T16:32:55.141Z,100959.33
2018-03-26T16:35:20.997Z,100968.50
2018-03-26T16:37:47.007Z,100971.31
2018-03-26T16:40:12.853Z,100963.98
2018-03-26T16:42:42.473Z,100967.03
2018-03-26T16:45:08.462Z,100971.03
2018-03-26T16:47:34.317Z,100967.59
2018-03-26T16:50:00.181Z,100971.20
2018-03-26T16:52:26.080Z,100968.60
2018-03-26T16:54:51.948Z,100965.27
2018-03-26T16:57:17.890Z,100970.95
2018-03-26T16:59:43.769Z,100971.42
2018-03-26T17:02:09.617Z,100977.55
2018-03-26T17:04:35.866Z,100976.30
2018-03-26T17:07:01.834Z,100984.59
2018-03-26T17:09:27.742Z,100981.53
2018-03-26T17:11:53.620Z,100988.11
2018-03-26T17:14:19.533Z,100991.73
2018-03-26T17:16:45.390Z,100998.27
2018-03-26T17:19:11.442Z,101000.13
2018-03-26T17:21:37.698Z,101002.36
2018-03-26T17:24:03.615Z,101007.16
2018-03-26T17:26:29.481Z,101008.02
2018-03-26T17:28:55.408Z,101008.50
2018-03-26T17:31:21.409Z,101007.25
2018-03-26T17:33:47.322Z,101010.77
2018-03-26T17:36:13.343Z,101007.73
2018-03-26T17:38:39.325Z,101016.05
2018-03-26T17:41:05.238Z,101022.21
2018-03-26T17:43:31.136Z,101029.64
2018-03-26T17:45:57.155Z,101034.45
2018-03-26T17:48:31.980Z,101037.94
2018-03-26T17:50:58.106Z,101034.02
2018-03-26T17:53:23.992Z,101040.14
2018-03-26T17:55:49.898Z,101041.47
2018-03-26T17:58:15.767Z,101037.98
2018-03-26T18:00:42.215Z,101041.05
2018-03-26T18:03:08.700Z,101044.53
2018-03-26T18:05:34.588Z,101052.78
2018-03-26T18:08:00.508Z,101046.72
2018-03-26T18:10:26.418Z,101051.52
2018-03-26T18:12:52.297Z,101063.69
2018-03-26T18:15:18.203Z,101063.70
2018-03-26T18:17:44.125Z,101072.41
2018-03-26T18:20:09.997Z,101073.69
2018-03-26T18:22:35.921Z,101076.73
2018-03-26T18:25:01.820Z,101088.05
2018-03-26T18:27:27.685Z,101085.84
2018-03-26T18:29:53.658Z,101086.25
2018-03-26T18:32:19.586Z,101090.14
2018-03-26T18:34:45.454Z,101084.95
2018-03-26T18:37:11.314Z,101091.49
2018-03-26T18:39:37.241Z,101091.03
2018-03-26T18:42:03.105Z,101092.31
2018-03-26T18:44:29.028Z,101096.23
2018-03-26T18:46:54.929Z,101097.53
2018-03-26T18:49:20.784Z,101085.77
2018-03-26T18:51:46.714Z,101097.46
2018-03-26T18:54:12.724Z,101096.65
2018-03-26T18:56:38.708Z,101107.47
2018-03-26T18:59:05.688Z,101113.53
2018-03-26T19:01:32.254Z,101114.00
2018-03-26T19:03:58.153Z,101113.09
2018-03-26T19:06:24.548Z,101126.54
2018-03-26T19:08:50.738Z,101120.45
2018-03-26T19:11:16.951Z,101136.03
2018-03-26T19:13:43.062Z,101128.58
2018-03-26T19:16:09.097Z,101138.18
2018-03-26T19:18:35.421Z,101137.31
2018-03-26T19:21:01.507Z,101130.36
2018-03-26T19:23:28.003Z,101132.98
2018-03-26T19:25:54.420Z,101132.89
2018-03-26T19:28:20.689Z,101143.27
2018-03-26T19:30:46.606Z,101140.23
2018-03-26T19:33:12.893Z,101136.30
2018-03-26T19:35:38.918Z,101136.70
2018-03-26T19:38:04.996Z,101150.08
2018-03-26T19:40:31.352Z,101146.58
2018-03-26T19:42:57.261Z,101147.42
2018-03-26T19:45:23.187Z,101146.59
2018-03-26T19:47:49.072Z,101155.29
2018-03-26T19:50:14.952Z,101159.58
2018-03-26T19:52:40.849Z,101159.61
2018-03-26T19:55:07.048Z,101153.98
2018-03-26T19:57:33.165Z,101161.30
2018-03-26T19:59:59.343Z,101157.87
2018-03-26T20:02:25.649Z,101170.90
2018-03-26T20:04:52.768Z,101173.85
2018-03-26T20:07:18.863Z,101170.80
2018-03-26T20:09:44.823Z,101181.25
2018-03-26T20:12:10.891Z,101180.81
2018-03-26T20:14:36.843Z,101182.86
2018-03-26T20:17:02.849Z,101183.66
2018-03-26T20:19:28.763Z,101173.22
2018-03-26T20:21:55.049Z,101180.05
2018-03-26T20:24:20.917Z,101175.20
2018-03-26T20:26:47.002Z,101183.46
2018-03-26T20:29:13.213Z,101183.24
2018-03-26T20:31:39.307Z,101190.67
2018-03-26T20:34:05.418Z,101179.81
2018-03-26T20:36:31.895Z,101179.80
2018-03-26T20:38:57.954Z,101186.06
2018-03-26T20:41:24.264Z,101189.95
2018-03-26T20:43:50.716Z,101193.91
2018-03-26T20:46:16.747Z,101191.35
2018-03-26T20:48:43.019Z,101187.88
2018-03-26T20:51:09.194Z,101190.04
2018-03-26T20:53:35.666Z,101186.56
2018-03-26T20:56:01.867Z,101190.01
2018-03-26T20:58:27.943Z,101193.03
2018-03-26T21:00:54.078Z,101191.67
2018-03-26T21:03:20.043Z,101190.58
2018-03-26T21:05:46.400Z,101190.92
2018-03-26T21:08:12.400Z,101189.60
2018-03-26T21:10:38.556Z,101194.38
2018-03-26T21:13:04.587Z,101185.66
2018-03-26T21:15:30.528Z,101199.13
2018-03-26T21:17:56.714Z,101186.14
2018-03-26T21:20:22.841Z,101194.29
2018-03-26T21:22:48.785Z,101191.30
2018-03-26T21:25:14.763Z,101189.51
2018-03-26T21:27:40.895Z,101195.16
2018-03-26T21:30:07.177Z,101200.39
2018-03-26T21:32:33.102Z,101193.92
2018-03-26T21:34:59.012Z,101194.39
2018-03-26T21:37:25.107Z,101187.38
2018-03-26T21:39:51.411Z,101189.19
2018-03-26T21:42:17.599Z,101189.16
2018-03-26T21:44:43.484Z,101197.05
2018-03-26T21:47:09.354Z,101193.07
2018-03-26T21:49:35.287Z,101196.55
2018-03-26T21:52:01.244Z,101194.28
2018-03-26T21:54:27.144Z,101187.34
2018-03-26T21:56:53.057Z,101192.98
2018-03-26T21:59:19.048Z,101196.02
2018-03-26T22:01:44.935Z,101186.42
2018-03-26T22:04:11.731Z,101186.45
2018-03-26T22:06:37.660Z,101192.53
2018-03-26T22:09:03.540Z,101192.02
2018-03-26T22:11:29.525Z,101183.38
2018-03-26T22:13:55.404Z,101181.73
2018-03-26T22:16:21.370Z,101185.95
2018-03-26T22:18:47.265Z,101184.58
2018-03-26T22:21:13.128Z,101177.63
2018-03-26T22:23:39.068Z,101187.18
2018-03-26T22:26:04.985Z,101185.84
2018-03-26T22:28:30.838Z,101188.05
2018-03-26T22:30:56.692Z,101194.91
2018-03-26T22:33:22.596Z,101183.24
2018-03-26T22:35:48.460Z,101189.31
2018-03-26T22:38:14.320Z,101182.41
2018-03-26T22:40:40.217Z,101189.86
2018-03-26T22:43:06.118Z,101195.08
2018-03-26T22:45:32.021Z,101193.25
2018-03-26T22:47:57.921Z,101191.59
2018-03-26T22:50:23.809Z,101196.41
2018-03-26T22:52:49.668Z,101196.37
2018-03-26T22:55:15.566Z,101191.95
2018-03-26T22:57:41.508Z,101202.77
2018-03-26T23:00:07.437Z,101199.80
2018-03-26T23:02:33.318Z,101196.27
2018-03-26T23:04:59.209Z,101201.54
2018-03-26T23:07:25.092Z,101195.86
2018-03-26T23:09:51.307Z,101194.11
2018-03-26T23:12:17.173Z,101190.28
2018-03-26T23:14:43.037Z,101199.84
2018-03-26T23:17:08.930Z,101201.14
2018-03-26T23:19:34.792Z,101196.37
2018-03-26T23:22:00.646Z,101203.92
2018-03-26T23:24:26.542Z,101196.81
2018-03-26T23:26:52.501Z,101200.27
2018-03-26T23:29:18.355Z,101201.67
2018-03-26T23:31:44.260Z,101200.67
2018-03-26T23:34:10.130Z,101194.25
2018-03-26T23:36:35.994Z,101193.34
2018-03-26T23:39:01.930Z,101196.31
2018-03-26T23:41:27.872Z,101192.89
2018-03-26T23:43:53.720Z,101194.70
2018-03-26T23:46:19.633Z,101198.19
2018-03-26T23:48:45.584Z,101195.56
2018-03-26T23:51:11.452Z,101190.65
2018-03-26T23:53:37.389Z,101195.44
2018-03-26T23:56:03.237Z,101194.56
2018-03-26T23:58:29.096Z,101194.10
